createdAt,value
2022-08-17T00:00:42.736Z,3.35
2022-08-17T00:03:24.592Z,3.47
2022-08-17T00:06:00.159Z,3.45
2022-08-17T00:08:34.784Z,3.22
2022-08-17T00:11:06.272Z,2.92
2022-08-17T00:13:38.251Z,3.22
2022-08-17T00:16:17.047Z,3.00
2022-08-17T00:18:58.160Z,3.20
2022-08-17T00:21:59.932Z,3.50
2022-08-17T00:24:22.959Z,3.33
2022-08-17T00:26:50.441Z,3.22
2022-08-17T00:29:20.033Z,3.55
2022-08-17T00:31:48.689Z,3.15
2022-08-17T00:34:16.382Z,2.70
2022-08-17T00:36:43.922Z,3.25
2022-08-17T00:39:11.672Z,3.13
2022-08-17T00:41:42.096Z,3.35
2022-08-17T00:44:12.215Z,3.20
2022-08-17T00:46:42.778Z,3.30
2022-08-17T00:49:12.660Z,3.22
2022-08-17T00:51:49.019Z,2.83
2022-08-17T00:54:24.194Z,3.35
2022-08-17T00:56:58.819Z,3.25
2022-08-17T00:59:31.081Z,3.30
2022-08-17T01:01:59.687Z,3.30
2022-08-17T01:04:30.196Z,3.50
2022-08-17T01:06:59.028Z,3.03
2022-08-17T01:09:26.993Z,3.05
2022-08-17T01:11:54.853Z,3.35
2022-08-17T01:14:25.177Z,3.55
2022-08-17T01:16:55.763Z,3.20
2022-08-17T01:19:30.117Z,3.03
2022-08-17T01:22:09.459Z,3.28
2022-08-17T01:24:43.365Z,3.25
2022-08-17T01:27:13.730Z,2.97
2022-08-17T01:29:46.538Z,3.33
2022-08-17T01:32:14.847Z,2.80
2022-08-17T01:34:43.894Z,3.40
2022-08-17T01:37:20.121Z,3.13
2022-08-17T01:39:57.622Z,2.83
2022-08-17T01:42:43.239Z,2.85
2022-08-17T01:45:43.054Z,3.30
2022-08-17T01:48:11.485Z,3.17
2022-08-17T01:50:42.342Z,3.20
2022-08-17T01:53:18.299Z,3.28
2022-08-17T01:55:48.660Z,3.13
2022-08-17T01:58:17.150Z,3.00
2022-08-17T02:01:00.466Z,3.03
2022-08-17T02:03:30.056Z,3.65
2022-08-17T02:05:58.150Z,3.20
2022-08-17T02:08:38.969Z,2.58
2022-08-17T02:11:16.999Z,3.13
2022-08-17T02:13:47.253Z,3.17
2022-08-17T02:16:22.611Z,3.15
2022-08-17T02:18:50.286Z,2.90
2022-08-17T02:21:17.778Z,3.42
2022-08-17T02:23:48.882Z,4.20
2022-08-17T02:26:25.441Z,3.28
2022-08-17T02:28:54.863Z,3.67
2022-08-17T02:31:22.314Z,3.03
2022-08-17T02:34:00.269Z,3.35
2022-08-17T02:36:35.764Z,3.10
2022-08-17T02:39:06.289Z,3.05
2022-08-17T02:41:34.128Z,3.28
2022-08-17T02:44:01.898Z,3.13
2022-08-17T02:46:31.093Z,3.40
2022-08-17T02:49:00.177Z,3.20
2022-08-17T02:51:28.146Z,3.10
2022-08-17T02:54:39.161Z,3.00
2022-08-17T02:56:43.397Z,3.40
2022-08-17T02:59:10.873Z,3.08
2022-08-17T03:01:38.636Z,2.78
2022-08-17T03:04:06.381Z,2.83
2022-08-17T03:06:34.113Z,3.10
2022-08-17T03:09:01.590Z,2.88
2022-08-17T03:11:29.023Z,3.33
2022-08-17T03:13:56.924Z,3.38
2022-08-17T03:16:24.357Z,3.25
2022-08-17T03:18:51.957Z,3.25
2022-08-17T03:21:19.418Z,3.08
2022-08-17T03:23:46.892Z,3.20
2022-08-17T03:26:22.056Z,3.28
2022-08-17T03:28:49.644Z,3.30
2022-08-17T03:31:18.457Z,3.08
2022-08-17T03:33:46.054Z,2.90
2022-08-17T03:36:13.744Z,3.53
2022-08-17T03:38:41.648Z,3.10
2022-08-17T03:41:09.390Z,3.50
2022-08-17T03:43:36.805Z,3.15
2022-08-17T03:46:28.386Z,3.67
2022-08-17T03:49:23.699Z,3.80
2022-08-17T03:52:10.172Z,3.22
2022-08-17T03:54:56.674Z,3.50
2022-08-17T03:57:24.762Z,3.47
2022-08-17T03:59:53.348Z,3.50
2022-08-17T04:02:33.947Z,3.55
2022-08-17T04:05:01.817Z,3.67
2022-08-17T04:07:31.550Z,3.50
2022-08-17T04:09:59.593Z,3.22
2022-08-17T04:12:31.716Z,3.15
2022-08-17T04:14:59.879Z,2.95
2022-08-17T04:17:29.273Z,3.20
2022-08-17T04:19:57.193Z,3.78
2022-08-17T04:22:32.069Z,3.50
2022-08-17T04:25:10.129Z,3.00
2022-08-17T04:27:37.652Z,3.25
2022-08-17T04:30:07.407Z,3.50
2022-08-17T04:33:09.883Z,3.00
2022-08-17T04:35:47.813Z,3.42
2022-08-17T04:38:19.034Z,3.10
2022-08-17T04:41:06.194Z,3.45
2022-08-17T04:43:35.112Z,3.33
2022-08-17T04:46:05.481Z,3.53
2022-08-17T04:48:47.840Z,3.55
2022-08-17T04:51:24.823Z,4.28
2022-08-17T04:53:55.804Z,4.18
2022-08-17T04:56:25.887Z,5.55
2022-08-17T04:58:56.529Z,5.78
2022-08-17T05:01:26.113Z,5.78
2022-08-17T05:03:56.274Z,5.78
2022-08-17T05:06:24.048Z,6.30
2022-08-17T05:08:51.967Z,6.82
2022-08-17T05:11:19.721Z,5.47
2022-08-17T05:13:50.227Z,5.22
2022-08-17T05:16:20.549Z,5.70
2022-08-17T05:18:48.280Z,5.57
2022-08-17T05:21:16.507Z,5.40
2022-08-17T05:23:44.973Z,5.80
2022-08-17T05:26:26.283Z,4.80
2022-08-17T05:29:00.514Z,6.00
2022-08-17T05:31:31.189Z,5.28
2022-08-17T05:33:59.527Z,5.68
2022-08-17T05:36:38.096Z,5.38
2022-08-17T05:39:16.232Z,5.50
2022-08-17T05:41:47.685Z,5.85
2022-08-17T05:44:16.292Z,5.40
2022-08-17T05:46:48.776Z,5.47
2022-08-17T05:49:19.240Z,5.77
2022-08-17T05:51:58.530Z,4.90
2022-08-17T05:54:47.843Z,4.75
2022-08-17T05:57:26.977Z,5.00
2022-08-17T05:59:54.618Z,5.13
2022-08-17T06:02:51.963Z,5.78
2022-08-17T06:05:30.861Z,5.47
2022-08-17T06:08:25.693Z,5.75
2022-08-17T06:11:06.710Z,5.47
2022-08-17T06:13:46.439Z,5.50
2022-08-17T06:16:28.256Z,5.75
2022-08-17T06:19:24.207Z,5.28
2022-08-17T06:21:54.896Z,5.40
2022-08-17T06:24:28.617Z,5.28
2022-08-17T06:27:07.555Z,4.90
2022-08-17T06:29:44.794Z,4.68
2022-08-17T06:32:14.746Z,4.13
2022-08-17T06:34:45.206Z,4.55
2022-08-17T06:37:34.291Z,4.72
2022-08-17T06:40:04.872Z,3.80
2022-08-17T06:43:06.565Z,3.80
2022-08-17T06:45:31.658Z,4.07
2022-08-17T06:48:05.802Z,3.88
2022-08-17T06:50:47.747Z,3.88
2022-08-17T06:53:31.802Z,4.20
2022-08-17T06:56:08.750Z,3.67
2022-08-17T06:58:40.295Z,4.43
2022-08-17T07:01:15.429Z,4.05
2022-08-17T07:03:49.894Z,3.78
2022-08-17T07:06:22.977Z,3.20
2022-08-17T07:08:55.596Z,4.00
2022-08-17T07:11:36.306Z,4.00
2022-08-17T07:14:18.933Z,4.10
2022-08-17T07:16:50.835Z,4.05
2022-08-17T07:19:22.672Z,3.38
2022-08-17T07:22:03.854Z,3.90
2022-08-17T07:24:37.319Z,4.05
2022-08-17T07:27:17.352Z,3.55
2022-08-17T07:29:58.912Z,3.40
2022-08-17T07:32:36.008Z,3.75
2022-08-17T07:35:23.124Z,3.90
2022-08-17T07:38:25.349Z,3.80
2022-08-17T07:40:57.713Z,4.30
2022-08-17T07:43:32.112Z,4.25
2022-08-17T07:46:21.316Z,3.78
2022-08-17T07:48:52.889Z,4.47
2022-08-17T07:51:34.043Z,3.75
2022-08-17T07:54:22.644Z,4.93
2022-08-17T07:57:13.103Z,4.15
2022-08-17T08:00:01.246Z,5.25
2022-08-17T08:02:38.701Z,5.00
2022-08-17T08:05:49.493Z,5.10
2022-08-17T08:08:24.692Z,4.95
2022-08-17T08:11:07.327Z,4.80
2022-08-17T08:13:42.406Z,5.20
2022-08-17T08:16:13.364Z,4.88
2022-08-17T08:18:54.089Z,4.22
2022-08-17T08:21:44.809Z,4.43
2022-08-17T08:24:15.076Z,4.32
2022-08-17T08:27:01.070Z,3.60
2022-08-17T08:30:07.262Z,3.40
2022-08-17T08:32:50.293Z,2.88
2022-08-17T08:38:45.265Z,2.67
2022-08-17T08:41:21.212Z,2.60
2022-08-17T08:43:58.215Z,2.42
2022-08-17T08:46:31.975Z,2.78
2022-08-17T08:49:33.847Z,2.60
2022-08-17T08:52:34.189Z,2.28
2022-08-17T08:58:02.804Z,1.65
2022-08-17T09:00:35.902Z,2.03
2022-08-17T09:03:36.514Z,1.90
2022-08-17T09:06:38.532Z,1.85
2022-08-17T09:09:50.757Z,2.20
2022-08-17T09:12:34.649Z,1.60
2022-08-17T09:15:27.788Z,1.67
2022-08-17T09:18:59.185Z,1.63
2022-08-17T09:21:02.298Z,1.90
2022-08-17T09:24:04.861Z,1.70
2022-08-17T09:26:39.477Z,1.92
2022-08-17T09:29:12.958Z,1.70
2022-08-17T09:32:03.756Z,2.13
2022-08-17T09:34:47.000Z,1.92
2022-08-17T09:37:37.465Z,1.67
2022-08-17T09:40:18.375Z,1.60
2022-08-17T09:43:04.298Z,2.10
2022-08-17T09:45:41.138Z,1.40
2022-08-17T09:48:20.840Z,1.35
2022-08-17T09:51:04.826Z,1.55
2022-08-17T09:53:37.167Z,1.63
2022-08-17T09:56:24.167Z,1.52
2022-08-17T09:59:08.694Z,1.38
2022-08-17T10:01:47.524Z,1.90
2022-08-17T10:04:30.605Z,1.60
2022-08-17T10:07:13.953Z,1.42
2022-08-17T10:10:21.145Z,1.77
2022-08-17T10:13:34.106Z,1.50
2022-08-17T10:16:41.200Z,1.65
2022-08-17T10:19:47.130Z,1.50
2022-08-17T10:22:53.258Z,1.80
2022-08-17T10:25:54.657Z,1.88
2022-08-17T10:28:30.211Z,1.73
2022-08-17T10:31:33.182Z,1.90
2022-08-17T10:33:53.481Z,1.50
2022-08-17T10:36:37.912Z,1.60
2022-08-17T10:39:20.210Z,2.13
2022-08-17T10:41:52.695Z,1.65
2022-08-17T10:44:40.358Z,1.70
2022-08-17T10:47:15.181Z,1.77
2022-08-17T10:49:53.907Z,2.08
2022-08-17T10:52:27.884Z,2.17
2022-08-17T10:54:57.897Z,2.40
2022-08-17T10:57:44.966Z,1.92
2022-08-17T11:00:18.770Z,3.03
2022-08-17T11:02:54.986Z,2.15
2022-08-17T11:05:47.369Z,1.88
2022-08-17T11:08:36.859Z,2.58
2022-08-17T11:11:35.987Z,1.90
2022-08-17T11:14:17.170Z,2.17
2022-08-17T11:17:07.857Z,2.17
2022-08-17T11:19:54.423Z,2.47
2022-08-17T11:22:56.721Z,2.63
2022-08-17T11:25:45.143Z,2.38
2022-08-17T11:28:52.482Z,2.20
2022-08-17T11:31:40.202Z,2.00
2022-08-17T11:34:21.691Z,2.40
2022-08-17T11:37:00.427Z,2.55
2022-08-17T11:39:37.719Z,2.65
2022-08-17T11:42:37.519Z,2.38
2022-08-17T11:45:19.512Z,2.70
2022-08-17T11:48:50.979Z,2.88
2022-08-17T11:51:42.147Z,2.80
2022-08-17T11:54:33.608Z,2.90
2022-08-17T11:57:27.667Z,2.78
2022-08-17T11:59:58.535Z,2.78
2022-08-17T12:02:31.609Z,2.45
2022-08-17T12:05:12.468Z,2.60
2022-08-17T12:08:06.009Z,2.58
2022-08-17T12:10:39.466Z,2.65
2022-08-17T12:13:13.273Z,3.00
2022-08-17T12:15:49.745Z,3.33
2022-08-17T12:18:37.639Z,3.08
2022-08-17T12:21:37.411Z,2.92
2022-08-17T12:24:29.292Z,2.95
2022-08-17T12:27:01.013Z,2.75
2022-08-17T12:29:35.712Z,3.00
2022-08-17T12:32:13.367Z,3.50
2022-08-17T12:34:43.690Z,3.10
2022-08-17T12:37:16.548Z,2.72
2022-08-17T12:40:03.448Z,2.55
2022-08-17T12:42:39.396Z,2.70
2022-08-17T12:45:21.595Z,3.00
2022-08-17T12:47:49.529Z,2.70
2022-08-17T12:50:28.955Z,2.95
2022-08-17T12:53:01.954Z,2.55
2022-08-17T12:55:36.982Z,2.70
2022-08-17T12:58:05.165Z,2.75
2022-08-17T13:00:35.826Z,2.75
2022-08-17T13:03:07.799Z,2.65
2022-08-17T13:05:53.781Z,2.90
2022-08-17T13:08:45.216Z,2.70
2022-08-17T13:11:19.236Z,2.80
2022-08-17T13:13:51.461Z,2.58
2022-08-17T13:16:22.722Z,2.70
2022-08-17T13:18:50.226Z,3.20
2022-08-17T13:21:22.393Z,2.45
2022-08-17T13:24:11.113Z,3.20
2022-08-17T13:26:54.751Z,3.05
2022-08-17T13:29:30.790Z,2.80
2022-08-17T13:32:04.740Z,2.50
2022-08-17T13:35:12.245Z,3.38
2022-08-17T13:37:36.554Z,2.80
2022-08-17T13:40:10.033Z,3.00
2022-08-17T13:42:51.681Z,2.83
2022-08-17T13:48:30.421Z,2.65
2022-08-17T13:50:58.035Z,3.42
2022-08-17T13:53:26.010Z,3.03
2022-08-17T13:55:56.803Z,3.05
2022-08-17T13:58:32.250Z,2.97
2022-08-17T14:01:31.734Z,3.30
2022-08-17T14:04:02.088Z,2.85
2022-08-17T14:06:53.396Z,2.85
2022-08-17T14:09:26.589Z,2.75
2022-08-17T14:11:56.809Z,3.25
2022-08-17T14:14:24.992Z,2.50
2022-08-17T14:16:53.606Z,2.80
2022-08-17T14:19:24.307Z,3.03
2022-08-17T14:21:59.058Z,3.00
2022-08-17T14:24:32.845Z,2.95
2022-08-17T14:27:03.518Z,3.05
2022-08-17T14:29:34.249Z,3.30
2022-08-17T14:32:10.017Z,3.22
2022-08-17T14:34:37.486Z,3.13
2022-08-17T14:37:05.176Z,3.05
2022-08-17T14:39:32.918Z,3.25
2022-08-17T14:42:01.407Z,2.50
2022-08-17T14:44:29.951Z,3.85
2022-08-17T14:46:57.356Z,3.38
2022-08-17T14:49:26.065Z,2.75
2022-08-17T14:51:53.997Z,3.10
2022-08-17T14:54:28.866Z,2.97
2022-08-17T14:57:23.070Z,3.00
2022-08-17T14:59:55.204Z,3.70
2022-08-17T15:02:30.411Z,3.05
2022-08-17T15:05:04.010Z,2.75
2022-08-17T15:07:31.846Z,2.92
2022-08-17T15:10:01.635Z,2.85
2022-08-17T15:12:33.386Z,3.33
2022-08-17T15:15:05.037Z,2.65
2022-08-17T15:17:44.282Z,2.78
2022-08-17T15:20:20.770Z,3.00
2022-08-17T15:22:55.653Z,2.88
2022-08-17T15:25:25.938Z,2.50
2022-08-17T15:27:55.891Z,2.58
2022-08-17T15:30:26.003Z,2.45
2022-08-17T15:32:55.175Z,3.80
2022-08-17T15:35:29.838Z,3.00
2022-08-17T15:38:10.536Z,2.85
2022-08-17T15:40:44.918Z,3.38
2022-08-17T15:43:28.305Z,2.55
2022-08-17T15:46:06.443Z,3.05
2022-08-17T15:48:41.833Z,3.28
2022-08-17T15:51:31.129Z,3.40
2022-08-17T15:54:04.467Z,2.88
2022-08-17T15:56:47.017Z,3.78
2022-08-17T15:59:14.552Z,2.97
2022-08-17T16:03:15.059Z,2.42
2022-08-17T16:04:31.600Z,2.45
2022-08-17T16:07:00.085Z,2.75
2022-08-17T16:09:28.296Z,2.78
2022-08-17T16:11:56.466Z,2.78
2022-08-17T16:14:32.554Z,3.75
2022-08-17T16:17:04.585Z,3.28
2022-08-17T16:19:34.350Z,3.35
2022-08-17T16:22:02.610Z,2.88
2022-08-17T16:24:31.872Z,3.75
2022-08-17T16:26:59.765Z,3.35
2022-08-17T16:29:27.907Z,2.90
2022-08-17T16:31:56.497Z,3.25
2022-08-17T16:34:24.685Z,3.53
2022-08-17T16:36:56.193Z,2.75
2022-08-17T16:39:26.736Z,2.95
2022-08-17T16:41:56.019Z,2.80
2022-08-17T16:44:25.862Z,3.33
2022-08-17T16:46:53.716Z,3.47
2022-08-17T16:49:25.781Z,3.67
2022-08-17T16:52:09.700Z,3.22
2022-08-17T16:54:40.673Z,3.00
2022-08-17T16:57:08.220Z,3.83
2022-08-17T16:59:41.853Z,3.67
2022-08-17T17:02:14.530Z,3.63
2022-08-17T17:04:57.582Z,4.00
2022-08-17T17:07:55.698Z,3.63
2022-08-17T17:10:33.554Z,3.90
2022-08-17T17:13:04.361Z,3.33
2022-08-17T17:15:47.347Z,3.60
2022-08-17T17:18:16.605Z,3.60
2022-08-17T17:20:55.965Z,3.22
2022-08-17T17:23:35.811Z,3.30
2022-08-17T17:26:16.508Z,3.72
2022-08-17T17:29:01.365Z,3.42
2022-08-17T17:31:38.461Z,3.20
2022-08-17T17:34:10.846Z,3.30
2022-08-17T17:36:40.801Z,3.60
2022-08-17T17:39:23.136Z,3.72
2022-08-17T17:42:02.745Z,3.77
2022-08-17T17:44:38.238Z,3.63
2022-08-17T17:47:06.136Z,4.35
2022-08-17T17:49:37.155Z,3.47
2022-08-17T17:52:30.136Z,4.15
2022-08-17T17:54:57.973Z,3.20
2022-08-17T17:57:40.633Z,3.97
2022-08-17T18:00:16.564Z,4.65
2022-08-17T18:02:53.892Z,3.60
2022-08-17T18:05:44.334Z,3.67
2022-08-17T18:08:34.884Z,4.05
2022-08-17T18:11:25.004Z,3.55
2022-08-17T18:14:04.804Z,3.75
2022-08-17T18:16:33.024Z,3.75
2022-08-17T18:19:00.884Z,2.58
2022-08-17T18:21:44.547Z,2.10
2022-08-17T18:24:16.289Z,2.85
2022-08-17T18:26:56.663Z,2.08
2022-08-17T18:29:31.545Z,2.35
2022-08-17T18:32:17.707Z,2.05
2022-08-17T18:34:48.984Z,2.75
2022-08-17T18:37:42.792Z,3.15
2022-08-17T18:40:17.405Z,2.03
2022-08-17T18:42:46.547Z,2.55
2022-08-17T18:45:35.585Z,2.20
2022-08-17T18:48:03.564Z,2.00
2022-08-17T18:50:41.468Z,2.20
2022-08-17T18:53:39.942Z,2.50
2022-08-17T18:56:33.063Z,2.30
2022-08-17T18:59:18.712Z,3.03
2022-08-17T19:02:27.250Z,2.90
2022-08-17T19:05:09.053Z,2.13
2022-08-17T19:07:46.255Z,2.33
2022-08-17T19:10:23.528Z,2.42
2022-08-17T19:13:12.307Z,2.95
2022-08-17T19:16:14.423Z,2.35
2022-08-17T19:18:48.892Z,2.45
2022-08-17T19:21:40.490Z,2.10
2022-08-17T19:24:19.752Z,2.20
2022-08-17T19:27:01.212Z,2.40
2022-08-17T19:29:43.281Z,2.00
2022-08-17T19:32:12.742Z,2.72
2022-08-17T19:34:43.176Z,2.40
2022-08-17T19:37:35.355Z,2.53
2022-08-17T19:40:51.699Z,2.38
2022-08-17T19:43:29.119Z,2.53
2022-08-17T19:46:07.561Z,2.40
2022-08-17T19:48:38.294Z,2.63
2022-08-17T19:51:21.649Z,2.70
2022-08-17T19:54:04.823Z,2.65
2022-08-17T19:56:44.022Z,2.80
2022-08-17T19:59:58.783Z,2.47
2022-08-17T20:02:44.394Z,2.53
2022-08-17T20:05:21.589Z,2.80
2022-08-17T20:07:55.600Z,2.50
2022-08-17T20:10:47.265Z,3.20
2022-08-17T20:13:35.245Z,2.78
2022-08-17T20:16:04.251Z,2.60
2022-08-17T20:18:34.583Z,2.35
2022-08-17T20:21:21.243Z,2.40
2022-08-17T20:24:18.380Z,2.28
2022-08-17T20:27:11.243Z,2.00
2022-08-17T20:30:03.454Z,1.50
2022-08-17T20:32:53.127Z,2.13
2022-08-17T20:35:23.685Z,1.55
2022-08-17T20:37:55.496Z,1.45
2022-08-17T20:40:30.396Z,1.40
2022-08-17T20:42:59.788Z,1.55
2022-08-17T20:45:58.791Z,1.50
2022-08-17T20:48:38.682Z,1.20
2022-08-17T20:51:27.539Z,1.40
2022-08-17T20:53:55.032Z,1.38
2022-08-17T20:56:44.380Z,1.73
2022-08-17T20:59:21.315Z,1.30
2022-08-17T21:02:18.128Z,1.30
2022-08-17T21:05:00.980Z,1.17
2022-08-17T21:07:43.533Z,1.42
2022-08-17T21:10:15.917Z,1.40
2022-08-17T21:12:53.994Z,1.40
2022-08-17T21:15:31.095Z,2.00
2022-08-17T21:18:11.987Z,1.60
2022-08-17T21:20:49.761Z,1.50
2022-08-17T21:23:40.394Z,2.25
2022-08-17T21:26:31.192Z,1.73
2022-08-17T21:29:31.827Z,2.20
2022-08-17T21:32:03.370Z,1.65
2022-08-17T21:34:33.745Z,2.00
2022-08-17T21:37:20.044Z,2.00
2022-08-17T21:39:56.773Z,2.22
2022-08-17T21:42:37.439Z,2.53
2022-08-17T21:45:21.607Z,2.45
2022-08-17T21:48:08.719Z,2.72
2022-08-17T21:50:36.825Z,2.17
2022-08-17T21:53:05.651Z,2.38
2022-08-17T21:55:36.082Z,2.70
2022-08-17T21:58:19.248Z,2.80
2022-08-17T22:00:46.984Z,2.80
2022-08-17T22:03:26.244Z,3.45
2022-08-17T22:05:53.938Z,2.90
2022-08-17T22:08:24.819Z,2.90
2022-08-17T22:11:01.360Z,2.85
2022-08-17T22:13:29.670Z,3.72
2022-08-17T22:16:27.770Z,3.50
2022-08-17T22:18:54.415Z,3.47
2022-08-17T22:21:22.579Z,3.90
2022-08-17T22:24:05.204Z,3.67
2022-08-17T22:27:03.520Z,3.80
2022-08-17T22:29:54.311Z,4.25
2022-08-17T22:35:19.248Z,3.95
2022-08-17T22:37:46.787Z,4.40
2022-08-17T22:40:26.405Z,4.00
2022-08-17T22:42:54.142Z,5.45
2022-08-17T22:45:24.286Z,4.28
2022-08-17T22:47:56.926Z,4.18
2022-08-17T22:50:28.094Z,4.15
2022-08-17T22:53:31.150Z,4.13
2022-08-17T22:56:17.602Z,4.20
2022-08-17T22:59:13.327Z,4.22
2022-08-17T23:01:42.201Z,5.00
2022-08-17T23:04:15.998Z,4.00
2022-08-17T23:06:43.688Z,4.20
2022-08-17T23:09:11.541Z,4.25
2022-08-17T23:11:49.692Z,4.28
2022-08-17T23:14:20.464Z,3.90
2022-08-17T23:16:50.231Z,3.70
2022-08-17T23:19:20.719Z,4.07
2022-08-17T23:21:51.063Z,4.25
2022-08-17T23:24:25.153Z,4.00
2022-08-17T23:26:53.797Z,3.42
2022-08-17T23:29:21.599Z,4.07
2022-08-17T23:31:51.066Z,3.75
2022-08-17T23:34:19.025Z,4.13
2022-08-17T23:36:50.727Z,3.75
2022-08-17T23:39:24.567Z,3.97
2022-08-17T23:41:57.333Z,3.88
2022-08-17T23:44:25.341Z,4.30
2022-08-17T23:46:53.473Z,4.15
2022-08-17T23:49:21.204Z,4.28
2022-08-17T23:51:49.032Z,4.70
2022-08-17T23:54:24.351Z,3.60
2022-08-17T23:56:52.185Z,3.83
2022-08-17T23:59:21.601Z,3.78
